Time;durP1;ratioP1;P1;durP2;ratioP2;P2;SDS_P1;SDS_P2;PMS_P1;PMS_P2;Temp;Humidity;BMP_temperature;BMP_pressure;BME280_temperature;BME280_humidity;BME280_pressure;Samples;Min_cycle;Max_cycle;Signal;HPM_P1;HPM_P2
2022/06/06 00:00:43;;;;;;;7.82;5.63;;;20.50;92.10;;;;;;4992133;28;20033;-68
2022/06/06 00:03:09;;;;;;;8.05;5.88;;;20.40;92.30;;;;;;4991545;28;20038;-68
2022/06/06 00:05:36;;;;;;;9.23;5.78;;;20.40;92.40;;;;;;4990748;28;20412;-68
2022/06/06 00:08:03;;;;;;;9.18;6.13;;;20.40;92.50;;;;;;4992551;28;20031;-68
2022/06/06 00:10:29;;;;;;;10.50;5.70;;;20.40;92.60;;;;;;4991749;28;20038;-68
2022/06/06 00:12:55;;;;;;;9.88;5.97;;;20.40;92.60;;;;;;4991790;28;20141;-68
2022/06/06 00:15:22;;;;;;;8.52;5.82;;;20.40;92.60;;;;;;4991903;28;20096;-68
2022/06/06 00:17:48;;;;;;;10.35;6.07;;;20.40;92.60;;;;;;4992066;28;20434;-68
2022/06/06 00:20:16;;;;;;;9.23;6.00;;;20.40;92.70;;;;;;4991732;28;20038;-68
2022/06/06 00:22:42;;;;;;;8.05;5.70;;;20.40;92.80;;;;;;4993448;28;20069;-68
2022/06/06 00:25:09;;;;;;;8.80;5.70;;;20.40;92.70;;;;;;4996253;28;20061;-68
2022/06/06 00:27:41;;;;;;;7.25;5.30;;;20.50;92.80;;;;;;4993507;28;20069;-68
2022/06/06 00:30:07;;;;;;;8.85;5.55;;;20.40;92.80;;;;;;4995973;28;20520;-68
2022/06/06 00:35:20;;;;;;;10.02;5.53;;;20.40;92.90;;;;;;4995451;28;20124;-68
2022/06/06 00:37:47;;;;;;;9.90;6.03;;;20.40;92.90;;;;;;4995254;28;20438;-68
2022/06/06 00:40:17;;;;;;;13.48;5.68;;;20.40;92.90;;;;;;4995392;28;20054;-68
2022/06/06 00:42:43;;;;;;;10.90;5.90;;;20.40;92.90;;;;;;4996041;28;20031;-68
2022/06/06 00:45:23;;;;;;;10.30;6.25;;;20.40;93.00;;;;;;4995180;28;20092;-68
2022/06/06 00:48:05;;;;;;;9.68;6.07;;;20.40;93.10;;;;;;4994994;28;20046;-68
2022/06/06 00:50:52;;;;;;;7.05;4.55;;;20.40;93.20;;;;;;4995644;28;20026;-68
2022/06/06 00:53:26;;;;;;;6.50;4.40;;;20.40;92.10;;;;;;4983416;28;20117;-68
2022/06/06 00:55:59;;;;;;;4.70;3.00;;;20.30;91.00;;;;;;4994041;28;20383;-68
2022/06/06 00:58:27;;;;;;;5.07;3.05;;;20.30;90.80;;;;;;4995730;28;20046;-68
2022/06/06 01:00:54;;;;;;;4.85;3.47;;;20.20;90.60;;;;;;4995084;28;20049;-68
2022/06/06 01:03:24;;;;;;;6.75;3.92;;;20.10;90.70;;;;;;4994614;28;20030;-68
2022/06/06 01:05:51;;;;;;;6.45;3.75;;;20.10;90.90;;;;;;4994501;28;20065;-68
2022/06/06 01:08:19;;;;;;;6.40;4.00;;;20.10;90.80;;;;;;4993912;28;20482;-69
2022/06/06 01:10:45;;;;;;;5.72;3.70;;;20.00;90.90;;;;;;4995381;28;20026;-68
2022/06/06 01:13:13;;;;;;;6.75;4.15;;;20.00;90.80;;;;;;4994061;28;20041;-69
2022/06/06 01:15:55;;;;;;;7.93;4.60;;;20.00;90.80;;;;;;4994754;28;20054;-69
2022/06/06 01:18:35;;;;;;;8.07;4.93;;;20.00;90.80;;;;;;4994406;28;20101;-69
2022/06/06 01:21:30;;;;;;;8.15;5.97;;;20.00;90.80;;;;;;4994477;28;20030;-69
2022/06/06 01:23:56;;;;;;;10.10;4.93;;;19.90;90.90;;;;;;4986156;28;20121;-68
2022/06/06 01:26:36;;;;;;;5.35;3.45;;;19.90;90.80;;;;;;4994060;28;20081;-69
2022/06/06 01:29:23;;;;;;;6.45;4.60;;;19.90;90.70;;;;;;4995124;28;20038;-69
2022/06/06 01:32:02;;;;;;;6.38;3.40;;;19.90;90.80;;;;;;4985101;28;20191;-69
2022/06/06 01:34:32;;;;;;;7.50;2.80;;;19.80;90.80;;;;;;4993924;28;20478;-68
2022/06/06 01:36:59;;;;;;;2.97;1.63;;;19.80;90.80;;;;;;4994723;28;20034;-69
2022/06/06 01:39:31;;;;;;;6.78;2.28;;;19.80;90.90;;;;;;4994332;28;20030;-69
2022/06/06 01:42:11;;;;;;;2.58;1.77;;;19.80;91.00;;;;;;4994157;28;20042;-69
2022/06/06 01:45:09;;;;;;;5.78;3.70;;;19.80;91.10;;;;;;4987274;28;20054;-69
2022/06/06 01:47:44;;;;;;;5.53;3.03;;;19.70;91.30;;;;;;4983371;28;20438;-69
2022/06/06 01:50:11;;;;;;;3.22;2.05;;;19.60;91.30;;;;;;4994376;28;20034;-69
2022/06/06 01:52:56;;;;;;;3.95;2.42;;;19.60;91.40;;;;;;4993326;28;20037;-68
2022/06/06 01:55:22;;;;;;;5.78;3.90;;;19.60;91.60;;;;;;4986215;28;20096;-68
2022/06/06 01:57:52;;;;;;;5.88;3.63;;;19.60;91.70;;;;;;4993250;28;20053;-68
2022/06/06 02:00:18;;;;;;;2.40;1.65;;;19.50;91.70;;;;;;4994177;28;20041;-69
2022/06/06 02:02:44;;;;;;;3.67;2.58;;;19.50;91.70;;;;;;4993460;28;20540;-68
2022/06/06 02:05:14;;;;;;;3.95;2.47;;;19.50;92.00;;;;;;4994043;28;20034;-69
2022/06/06 02:07:43;;;;;;;4.60;2.75;;;19.50;92.10;;;;;;4993632;28;20180;-68
2022/06/06 02:10:11;;;;;;;6.50;2.65;;;19.40;92.30;;;;;;4993693;28;20121;-68
2022/06/06 02:12:39;;;;;;;2.95;2.45;;;19.30;92.50;;;;;;4991234;28;20030;-68
2022/06/06 02:15:10;;;;;;;6.90;2.75;;;19.30;92.60;;;;;;4993491;28;20094;-69
2022/06/06 02:17:36;;;;;;;6.03;3.28;;;19.20;92.80;;;;;;4994286;28;20031;-68
2022/06/06 02:20:04;;;;;;;2.55;1.55;;;19.10;92.90;;;;;;4991605;28;20038;-68
2022/06/06 02:22:33;;;;;;;3.20;1.80;;;19.00;93.00;;;;;;4991521;28;20497;-69
2022/06/06 02:24:59;;;;;;;6.95;2.60;;;18.90;93.10;;;;;;4994296;28;20049;-68
2022/06/06 02:27:25;;;;;;;8.57;3.03;;;18.90;93.20;;;;;;4991542;28;20042;-69
2022/06/06 02:29:51;;;;;;;6.10;2.40;;;18.80;93.30;;;;;;4993595;28;20125;-68
2022/06/06 02:32:17;;;;;;;7.35;2.42;;;18.80;93.40;;;;;;4993939;28;20165;-68
2022/06/06 02:34:42;;;;;;;4.03;2.13;;;18.70;93.40;;;;;;4992499;28;20108;-68
2022/06/06 02:37:08;;;;;;;5.75;2.17;;;18.70;93.40;;;;;;4993565;28;20049;-68
2022/06/06 02:39:34;;;;;;;3.83;2.05;;;18.60;93.40;;;;;;4993310;28;20505;-68
2022/06/06 02:41:59;;;;;;;3.65;2.20;;;18.70;93.40;;;;;;4992647;28;20030;-68
2022/06/06 02:44:28;;;;;;;3.17;1.73;;;18.60;93.40;;;;;;4992883;28;20081;-69
2022/06/06 02:46:54;;;;;;;2.58;1.75;;;18.60;93.40;;;;;;4990000;28;20489;-69
2022/06/06 02:49:20;;;;;;;8.07;2.20;;;18.60;93.50;;;;;;4993117;28;20034;-69
2022/06/06 02:51:45;;;;;;;3.30;1.83;;;18.50;93.50;;;;;;4992313;28;20049;-69
2022/06/06 02:54:11;;;;;;;3.83;1.90;;;18.50;93.50;;;;;;4992884;28;20081;-68
2022/06/06 02:56:37;;;;;;;4.72;2.08;;;18.40;93.60;;;;;;4992523;28;20033;-68
2022/06/06 02:59:07;;;;;;;3.50;2.20;;;18.40;93.70;;;;;;4993289;28;20378;-69
2022/06/06 03:01:33;;;;;;;2.28;1.85;;;18.30;94.00;;;;;;4992122;28;20389;-68
2022/06/06 03:03:59;;;;;;;3.00;1.92;;;18.30;93.80;;;;;;4992972;28;20034;-68
2022/06/06 03:06:42;;;;;;;1.85;1.70;;;18.20;93.80;;;;;;4992696;28;20097;-69
2022/06/06 03:09:29;;;;;;;2.55;1.77;;;18.20;93.80;;;;;;4992382;28;20461;-69
2022/06/06 03:12:34;;;;;;;4.32;1.83;;;18.20;93.90;;;;;;4988682;28;20026;-69
2022/06/06 03:15:29;;;;;;;5.20;2.20;;;18.10;93.90;;;;;;4987986;28;20046;-69
2022/06/06 03:21:27;;;;;;;4.68;2.05;;;17.90;93.90;;;;;;4975272;28;20107;-68
2022/06/06 03:24:27;;;;;;;2.35;1.45;;;17.90;94.00;;;;;;4991857;28;20417;-68
2022/06/06 03:27:11;;;;;;;3.03;1.77;;;17.90;94.10;;;;;;4990407;28;20097;-68
2022/06/06 03:29:50;;;;;;;;;;;17.80;94.10;;;;;;4992701;28;20030;-69
2022/06/06 03:32:38;;;;;;;2.22;1.40;;;17.80;94.10;;;;;;4981539;28;19910;-68
2022/06/06 03:35:29;;;;;;;4.85;2.15;;;17.70;94.10;;;;;;4991951;28;20045;-69
2022/06/06 03:38:07;;;;;;;2.03;1.67;;;17.70;94.20;;;;;;4991320;28;20066;-69
2022/06/06 03:40:35;;;;;;;3.17;2.22;;;17.70;94.30;;;;;;4992554;28;20133;-68
2022/06/06 03:43:22;;;;;;;3.45;2.28;;;17.60;94.30;;;;;;4991197;28;20034;-69
2022/06/06 03:45:59;;;;;;;2.85;1.80;;;17.70;94.30;;;;;;4992633;28;20038;-69
2022/06/06 03:48:25;;;;;;;2.20;1.48;;;17.60;94.40;;;;;;4981676;28;20027;-68
2022/06/06 03:51:02;;;;;;;4.65;1.60;;;17.60;94.40;;;;;;4991337;28;20049;-68
2022/06/06 03:53:43;;;;;;;2.22;1.88;;;17.60;94.40;;;;;;4976171;28;20042;-69
2022/06/06 03:56:38;;;;;;;1.75;1.50;;;17.60;94.30;;;;;;4991325;28;20038;-69
2022/06/06 03:59:06;;;;;;;1.77;1.30;;;17.60;94.30;;;;;;4986714;28;20065;-69
2022/06/06 04:01:34;;;;;;;2.78;1.92;;;17.60;94.30;;;;;;4992061;28;20037;-69
2022/06/06 04:04:01;;;;;;;2.85;2.30;;;17.60;94.30;;;;;;4990893;28;20034;-69
2022/06/06 04:06:28;;;;;;;4.78;1.88;;;17.60;94.30;;;;;;4992293;28;20614;-69
2022/06/06 04:08:54;;;;;;;1.98;1.65;;;17.60;94.60;;;;;;4991595;28;20057;-69
2022/06/06 04:11:29;;;;;;;3.03;1.85;;;17.60;94.40;;;;;;4991932;28;20474;-69
2022/06/06 04:13:54;;;;;;;2.80;1.45;;;17.60;94.40;;;;;;4991366;28;20097;-69
2022/06/06 04:16:42;;;;;;;3.45;2.08;;;17.60;94.40;;;;;;4992594;28;20461;-69
2022/06/06 04:19:29;;;;;;;3.90;2.20;;;17.60;94.50;;;;;;4990557;28;20027;-69
2022/06/06 04:22:09;;;;;;;2.90;1.90;;;17.50;94.50;;;;;;4991327;28;20034;-69
2022/06/06 04:24:57;;;;;;;4.63;2.05;;;17.50;94.50;;;;;;4992262;28;20033;-69
2022/06/06 04:27:41;;;;;;;3.95;2.17;;;17.50;94.50;;;;;;4981654;28;20069;-69
2022/06/06 04:30:12;;;;;;;3.90;1.95;;;17.50;94.50;;;;;;4988270;28;20038;-69
2022/06/06 04:33:02;;;;;;;3.10;2.03;;;17.50;94.50;;;;;;4984642;28;20545;-69
2022/06/06 04:35:37;;;;;;;3.05;1.55;;;17.50;94.80;;;;;;4981681;28;20034;-69
2022/06/06 04:38:28;;;;;;;2.40;1.95;;;17.40;94.70;;;;;;4991677;28;20026;-69
2022/06/06 04:41:15;;;;;;;1.67;1.38;;;17.40;94.70;;;;;;4991255;28;20033;-69
2022/06/06 04:43:51;;;;;;;3.15;1.85;;;17.40;94.70;;;;;;4982938;28;20474;-69
2022/06/06 04:46:29;;;;;;;5.45;2.25;;;17.40;94.70;;;;;;4990674;28;20494;-69
2022/06/06 04:48:56;;;;;;;4.15;1.65;;;17.40;94.80;;;;;;4991514;28;20031;-69
2022/06/06 04:51:23;;;;;;;3.22;2.15;;;17.40;94.80;;;;;;4991232;28;20477;-69
2022/06/06 04:53:52;;;;;;;1.33;0.88;;;17.40;94.80;;;;;;4990701;28;20142;-69
2022/06/06 04:56:20;;;;;;;2.00;1.67;;;17.50;94.90;;;;;;4991932;28;20053;-69
2022/06/06 04:58:49;;;;;;;3.60;2.05;;;17.40;94.80;;;;;;4991602;28;20165;-69
2022/06/06 05:01:15;;;;;;;2.47;1.85;;;17.40;94.90;;;;;;4991254;28;20038;-69
2022/06/06 05:03:41;;;;;;;3.13;2.08;;;17.40;94.90;;;;;;4991147;28;20030;-69
2022/06/06 05:06:15;;;;;;;1.80;1.45;;;17.30;94.90;;;;;;4991956;28;20045;-69
2022/06/06 05:08:50;;;;;;;2.05;1.27;;;17.40;94.90;;;;;;4991363;28;20120;-69
2022/06/06 05:11:23;;;;;;;2.42;1.58;;;17.40;94.90;;;;;;4995218;28;20034;-69
2022/06/06 05:14:09;;;;;;;1.85;1.42;;;17.40;94.90;;;;;;4995264;28;20046;-68
2022/06/06 05:16:59;;;;;;;2.15;1.40;;;17.30;94.90;;;;;;4984473;28;20053;-69
2022/06/06 05:19:54;;;;;;;4.88;1.55;;;17.40;95.00;;;;;;4994989;28;20113;-69
2022/06/06 05:22:28;;;;;;;3.33;1.98;;;17.40;95.00;;;;;;4985803;28;20485;-69
2022/06/06 05:25:02;;;;;;;0.88;0.88;;;17.40;95.00;;;;;;4994353;28;20030;-69
2022/06/06 05:27:54;;;;;;;2.85;1.75;;;17.30;94.90;;;;;;4995248;28;20237;-69
2022/06/06 05:30:35;;;;;;;1.35;0.75;;;17.40;94.90;;;;;;4994437;28;20106;-69
2022/06/06 05:33:33;;;;;;;0.75;0.70;;;17.40;94.90;;;;;;4994126;28;20098;-69
2022/06/06 05:36:37;;;;;;;1.20;1.00;;;17.40;94.90;;;;;;4994201;28;20490;-69
2022/06/06 05:39:39;;;;;;;1.17;1.08;;;17.40;94.90;;;;;;4878206;29;20037;-68
2022/06/06 05:42:18;;;;;;;1.52;1.08;;;17.30;95.10;;;;;;4992837;28;20044;-69
2022/06/06 05:45:03;;;;;;;2.90;1.67;;;17.30;95.60;;;;;;4994067;28;20034;-69
2022/06/06 05:47:49;;;;;;;2.53;1.75;;;17.30;95.40;;;;;;4993572;28;20048;-69
2022/06/06 05:50:18;;;;;;;1.42;1.10;;;17.20;95.50;;;;;;4993956;28;20177;-69
2022/06/06 05:52:46;;;;;;;1.50;1.20;;;17.10;95.60;;;;;;4994464;28;20030;-68
2022/06/06 05:55:39;;;;;;;4.10;1.60;;;17.10;95.60;;;;;;4994358;28;20030;-69
2022/06/06 05:58:35;;;;;;;1.70;1.25;;;17.10;95.70;;;;;;4993480;28;20034;-68
2022/06/06 06:01:04;;;;;;;2.90;1.55;;;17.10;95.90;;;;;;4990538;28;20128;-69
2022/06/06 06:03:54;;;;;;;1.52;1.17;;;17.00;95.90;;;;;;4993760;28;20026;-69
2022/06/06 06:06:32;;;;;;;2.42;1.77;;;17.00;96.00;;;;;;4992480;28;20122;-69
2022/06/06 06:09:15;;;;;;;2.83;1.77;;;17.00;96.10;;;;;;4988110;28;20085;-69
2022/06/06 06:11:56;;;;;;;2.47;1.55;;;16.90;96.10;;;;;;4992773;28;20113;-68
2022/06/06 06:14:59;;;;;;;4.43;2.28;;;16.90;96.20;;;;;;4992365;28;20121;-68
2022/06/06 06:17:28;;;;;;;9.55;3.13;;;16.90;96.20;;;;;;4993710;28;20544;-69
2022/06/06 06:20:05;;;;;;;3.80;2.17;;;16.90;96.30;;;;;;4992104;28;20441;-68
2022/06/06 06:22:49;;;;;;;4.90;2.80;;;16.80;96.40;;;;;;4993497;28;20505;-69
2022/06/06 06:25:17;;;;;;;5.40;3.38;;;16.70;96.40;;;;;;4992554;28;20030;-68
2022/06/06 06:27:44;;;;;;;4.55;2.55;;;16.80;96.40;;;;;;4993580;28;20122;-68
2022/06/06 06:30:10;;;;;;;5.03;2.47;;;16.70;96.40;;;;;;4993650;28;20035;-69
2022/06/06 06:32:51;;;;;;;6.28;2.63;;;16.80;96.30;;;;;;4992957;28;20030;-69
2022/06/06 06:35:39;;;;;;;3.72;1.95;;;16.80;96.20;;;;;;4981342;28;20030;-68
2022/06/06 06:38:36;;;;;;;5.18;2.20;;;16.80;96.20;;;;;;4992830;28;20113;-68
2022/06/06 06:41:18;;;;;;;3.92;2.03;;;16.80;96.20;;;;;;4992224;28;20034;-69
2022/06/06 06:43:56;;;;;;;3.90;2.10;;;16.70;96.20;;;;;;4993907;28;20038;-68
2022/06/06 06:46:36;;;;;;;3.53;2.60;;;16.80;96.10;;;;;;4992560;28;20038;-67
2022/06/06 06:49:22;;;;;;;4.30;2.67;;;16.70;96.10;;;;;;4992759;28;20065;-67
2022/06/06 06:52:15;;;;;;;4.82;2.78;;;16.70;96.20;;;;;;4990544;28;20022;-67
2022/06/06 06:55:04;;;;;;;5.57;2.85;;;16.60;96.30;;;;;;4991205;28;20038;-67
2022/06/06 06:57:46;;;;;;;4.47;2.55;;;16.50;96.30;;;;;;4992013;28;20041;-68
2022/06/06 07:00:17;;;;;;;4.53;2.75;;;16.50;96.40;;;;;;4992756;28;20478;-69
2022/06/06 07:09:01;;;;;;;4.45;2.38;;;16.50;96.40;;;;;;4988520;28;20026;-68
2022/06/06 07:11:51;;;;;;;2.72;1.92;;;16.50;96.30;;;;;;4990732;28;20061;-69
2022/06/06 07:14:38;;;;;;;3.53;2.38;;;16.60;96.20;;;;;;4989677;28;20114;-69
2022/06/06 07:17:05;;;;;;;2.33;1.77;;;16.60;96.20;;;;;;4990396;28;20122;-69
2022/06/06 07:19:44;;;;;;;4.88;2.45;;;16.60;96.10;;;;;;4990996;28;20022;-69
2022/06/06 07:22:11;;;;;;;3.53;2.22;;;16.50;96.10;;;;;;4988052;28;20045;-69
2022/06/06 07:24:40;;;;;;;4.28;2.20;;;16.50;96.20;;;;;;4990406;28;20049;-67
2022/06/06 07:27:08;;;;;;;3.50;2.17;;;16.50;96.40;;;;;;4991297;28;20046;-67
2022/06/06 07:29:34;;;;;;;2.63;1.38;;;16.40;96.40;;;;;;4990081;28;20101;-69
2022/06/06 07:32:35;;;;;;;4.68;2.10;;;16.40;96.40;;;;;;4990381;28;20470;-68
2022/06/06 07:35:16;;;;;;;3.28;2.08;;;16.50;96.50;;;;;;4905430;28;20157;-68
2022/06/06 07:38:17;;;;;;;2.17;1.67;;;16.50;96.50;;;;;;4987887;28;20093;-68
2022/06/06 07:41:15;;;;;;;1.90;1.40;;;16.50;96.50;;;;;;4989489;28;20077;-67
2022/06/06 07:44:11;;;;;;;4.50;1.85;;;16.40;96.50;;;;;;4986894;28;20405;-67
2022/06/06 07:47:05;;;;;;;2.10;1.30;;;16.50;96.50;;;;;;4987475;28;20038;-68
2022/06/06 07:49:49;;;;;;;3.25;1.67;;;16.50;96.40;;;;;;4978911;28;20378;-68
2022/06/06 07:52:15;;;;;;;;;;;16.50;96.20;;;;;;4991613;28;20050;-68
2022/06/06 07:54:47;;;;;;;2.88;1.70;;;16.50;96.10;;;;;;4990179;28;19914;-68
2022/06/06 07:57:37;;;;;;;3.30;1.58;;;16.50;96.10;;;;;;4989906;28;20470;-68
2022/06/06 08:00:18;;;;;;;3.70;2.00;;;16.50;96.10;;;;;;4987490;28;20035;-68
2022/06/06 08:03:19;;;;;;;7.25;1.70;;;16.60;96.00;;;;;;4987922;28;20042;-69
2022/06/06 08:06:03;;;;;;;2.95;1.52;;;16.60;96.00;;;;;;4987610;28;20121;-68
2022/06/06 08:08:35;;;;;;;2.67;1.85;;;16.60;95.90;;;;;;4986331;28;20035;-68
2022/06/06 08:11:13;;;;;;;1.95;1.52;;;16.60;95.80;;;;;;4988267;28;20394;-65
2022/06/06 08:13:56;;;;;;;3.13;1.55;;;16.70;95.70;;;;;;4988133;28;20477;-68
2022/06/06 08:16:30;;;;;;;3.20;1.05;;;16.70;95.70;;;;;;4989242;28;20027;-67
2022/06/06 08:19:41;;;;;;;2.65;1.73;;;16.70;95.70;;;;;;4988518;28;20041;-66
2022/06/06 08:22:09;;;;;;;5.28;2.10;;;16.70;95.70;;;;;;4971813;28;20474;-66
2022/06/06 08:24:42;;;;;;;2.67;1.75;;;16.70;95.70;;;;;;4987513;28;20150;-65
2022/06/06 08:27:11;;;;;;;9.93;2.03;;;16.70;96.00;;;;;;4987553;28;20133;-66
2022/06/06 08:29:39;;;;;;;4.20;2.22;;;16.70;95.90;;;;;;4987201;28;20113;-66
2022/06/06 08:32:06;;;;;;;3.80;1.98;;;16.70;95.90;;;;;;4987078;28;20027;-66
2022/06/06 08:34:33;;;;;;;3.08;1.67;;;16.70;95.80;;;;;;4986896;28;20401;-66
2022/06/06 08:37:29;;;;;;;2.42;1.45;;;16.70;95.80;;;;;;4987849;28;20034;-66
2022/06/06 08:40:24;;;;;;;5.30;2.33;;;16.80;95.70;;;;;;4986297;28;20049;-66
2022/06/06 08:43:14;;;;;;;2.03;1.50;;;16.70;95.70;;;;;;4987776;28;20030;-66
2022/06/06 08:46:09;;;;;;;1.33;1.15;;;16.70;95.70;;;;;;4990698;28;20036;-67
2022/06/06 08:49:01;;;;;;;1.92;1.60;;;16.80;95.60;;;;;;4992371;28;20046;-66
2022/06/06 08:51:48;;;;;;;3.78;2.03;;;16.90;95.60;;;;;;4992950;28;20037;-66
2022/06/06 08:54:19;;;;;;;3.92;2.15;;;17.00;95.70;;;;;;4993467;28;20093;-68
2022/06/06 08:56:53;;;;;;;5.53;2.22;;;17.00;95.90;;;;;;4994694;28;20023;-66
2022/06/06 08:59:53;;;;;;;5.50;2.28;;;17.10;96.00;;;;;;4991375;28;20749;-67
2022/06/06 09:02:57;;;;;;;3.72;1.95;;;17.10;96.10;;;;;;4993921;28;20030;-67
2022/06/06 09:05:23;;;;;;;4.15;2.25;;;17.20;96.20;;;;;;4993095;28;20058;-67
2022/06/06 09:07:51;;;;;;;4.97;2.55;;;17.20;96.40;;;;;;4993842;28;20120;-69
2022/06/06 09:10:36;;;;;;;4.35;2.60;;;17.30;96.30;;;;;;4993341;28;20030;-67
2022/06/06 09:13:24;;;;;;;3.00;2.13;;;17.30;96.20;;;;;;4993264;28;20118;-66
2022/06/06 09:16:22;;;;;;;4.05;2.60;;;17.20;96.10;;;;;;4992561;28;20039;-67
2022/06/06 09:19:18;;;;;;;3.97;2.72;;;17.20;96.10;;;;;;4961263;28;20038;-67
2022/06/06 09:21:53;;;;;;;5.35;2.20;;;17.10;96.00;;;;;;4992300;28;20034;-67
2022/06/06 09:24:38;;;;;;;3.35;1.85;;;17.10;96.20;;;;;;4994162;28;20791;-67
2022/06/06 09:27:06;;;;;;;4.85;2.60;;;16.90;96.20;;;;;;4985441;28;20418;-67
2022/06/06 09:29:48;;;;;;;3.72;2.20;;;17.00;96.40;;;;;;4992963;28;20022;-68
2022/06/06 09:32:25;;;;;;;5.30;2.13;;;17.00;96.40;;;;;;4989840;28;20104;-68
2022/06/06 09:35:03;;;;;;;3.88;1.73;;;17.00;96.70;;;;;;4993597;28;20030;-66
2022/06/06 09:37:40;;;;;;;5.00;1.80;;;17.10;96.30;;;;;;4991182;28;20157;-67
2022/06/06 09:40:28;;;;;;;4.10;2.00;;;17.10;96.20;;;;;;4992182;28;20126;-66
2022/06/06 09:43:26;;;;;;;3.13;2.05;;;17.20;95.90;;;;;;4989958;28;20030;-66
2022/06/06 09:46:33;;;;;;;3.22;2.13;;;17.20;95.90;;;;;;4988347;28;20206;-67
2022/06/06 09:49:44;;;;;;;6.10;2.80;;;17.30;95.90;;;;;;4994060;28;20460;-66
2022/06/06 09:52:41;;;;;;;10.15;3.45;;;17.30;95.80;;;;;;4993538;28;20031;-66
2022/06/06 10:01:21;;;;;;;11.10;2.33;;;17.40;96.30;;;;;;4993686;28;20026;-66
2022/06/06 10:03:56;;;;;;;7.70;2.85;;;17.40;96.00;;;;;;4992641;28;20116;-66
2022/06/06 10:06:46;;;;;;;3.20;1.90;;;17.50;95.60;;;;;;4993444;28;20121;-67
2022/06/06 10:09:50;;;;;;;4.07;2.33;;;17.50;95.40;;;;;;4990353;28;20750;-66
2022/06/06 10:12:52;;;;;;;7.50;2.00;;;17.60;95.30;;;;;;4898111;29;20020;-65
2022/06/06 10:15:40;;;;;;;2.60;1.70;;;17.60;95.40;;;;;;4991829;28;20058;-65
2022/06/06 10:18:11;;;;;;;5.60;1.67;;;17.70;95.30;;;;;;4989624;28;20371;-65
2022/06/06 10:21:13;;;;;;;1.83;1.48;;;17.80;95.00;;;;;;4991111;28;20135;-65
2022/06/06 10:24:16;;;;;;;3.95;1.85;;;17.80;94.80;;;;;;4991352;28;20034;-65
2022/06/06 10:26:45;;;;;;;4.15;1.80;;;17.90;94.40;;;;;;4990967;28;20124;-65
2022/06/06 10:33:04;;;;;;;4.47;1.40;;;18.00;94.00;;;;;;4990897;28;20034;-65
2022/06/06 10:35:37;;;;;;;0.73;0.73;;;18.00;93.80;;;;;;4967147;28;20113;-65
2022/06/06 10:38:27;;;;;;;3.63;1.20;;;18.10;93.40;;;;;;4992362;28;20056;-66
2022/06/06 10:41:14;;;;;;;1.98;1.30;;;18.10;93.20;;;;;;4992117;28;20031;-66
2022/06/06 10:44:10;;;;;;;2.38;1.45;;;18.20;93.10;;;;;;4989995;28;20037;-65
2022/06/06 10:47:14;;;;;;;3.92;1.25;;;18.10;92.80;;;;;;4990735;28;20093;-67
2022/06/06 10:49:53;;;;;;;5.00;1.23;;;18.20;92.70;;;;;;4991344;28;20113;-65
2022/06/06 10:52:32;;;;;;;5.40;1.40;;;18.30;92.50;;;;;;4986405;28;20478;-66
2022/06/06 10:55:21;;;;;;;4.85;1.20;;;18.30;92.00;;;;;;4991888;28;20081;-66
2022/06/06 10:58:04;;;;;;;1.48;0.90;;;18.30;91.70;;;;;;4991893;28;20394;-66
2022/06/06 11:00:56;;;;;;;2.15;0.98;;;18.40;91.70;;;;;;4990509;28;20459;-66
2022/06/06 11:03:51;;;;;;;2.95;1.27;;;18.30;91.20;;;;;;4990919;28;20041;-65
2022/06/06 11:06:38;;;;;;;4.05;1.40;;;18.40;91.00;;;;;;4985942;28;20124;-66
2022/06/06 11:09:24;;;;;;;4.75;1.27;;;18.30;91.10;;;;;;4992101;28;20053;-65
2022/06/06 11:12:09;;;;;;;3.70;1.25;;;18.30;90.80;;;;;;4986531;28;20068;-65
2022/06/06 11:14:38;;;;;;;3.88;1.20;;;18.30;91.00;;;;;;4991458;28;20057;-65
2022/06/06 11:17:41;;;;;;;3.83;1.40;;;18.40;91.20;;;;;;4993071;28;20026;-65
2022/06/06 11:20:19;;;;;;;3.08;1.08;;;18.50;91.50;;;;;;4990907;28;20022;-66
2022/06/06 11:22:50;;;;;;;3.55;1.20;;;18.50;91.30;;;;;;4991880;28;20117;-66
2022/06/06 11:25:21;;;;;;;1.33;1.20;;;18.50;91.00;;;;;;4993108;28;20802;-66
2022/06/06 11:28:11;;;;;;;1.02;0.70;;;18.70;90.80;;;;;;4990506;28;20046;-66
2022/06/06 11:31:04;;;;;;;3.38;1.08;;;18.60;90.60;;;;;;4992070;28;20030;-65
2022/06/06 11:33:29;;;;;;;1.58;0.98;;;18.70;90.80;;;;;;4991433;28;20085;-67
2022/06/06 11:36:22;;;;;;;1.20;1.08;;;18.80;90.50;;;;;;4990596;28;20133;-66
2022/06/06 11:39:23;;;;;;;2.30;1.27;;;18.80;90.30;;;;;;4989514;28;20057;-65
2022/06/06 11:42:12;;;;;;;3.00;1.13;;;18.80;90.10;;;;;;4990797;28;20277;-65
2022/06/06 11:45:08;;;;;;;2.15;0.85;;;18.80;89.30;;;;;;4963796;28;20057;-66
2022/06/06 11:47:50;;;;;;;3.20;1.10;;;18.80;89.40;;;;;;4987158;28;20045;-66
2022/06/06 11:50:31;;;;;;;2.85;1.15;;;18.90;89.70;;;;;;4982320;28;20038;-65
2022/06/06 11:53:31;;;;;;;3.53;0.90;;;18.90;89.70;;;;;;4991661;28;20050;-65
2022/06/06 11:56:10;;;;;;;1.58;1.30;;;19.10;90.10;;;;;;4991092;28;20030;-66
2022/06/06 11:58:56;;;;;;;0.93;0.90;;;19.20;90.40;;;;;;4991216;28;20029;-66
2022/06/06 12:01:46;;;;;;;1.77;1.17;;;19.20;90.60;;;;;;4990733;28;20058;-65
2022/06/06 12:04:30;;;;;;;1.48;0.80;;;19.20;90.60;;;;;;4988272;28;20534;-67
2022/06/06 12:07:14;;;;;;;1.02;0.90;;;19.10;90.70;;;;;;4989248;28;20758;-67
2022/06/06 12:09:55;;;;;;;3.85;0.80;;;19.10;91.00;;;;;;4988785;28;20479;-65
2022/06/06 12:13:11;;;;;;;1.83;1.20;;;19.10;91.20;;;;;;4988604;28;20042;-67
2022/06/06 12:15:55;;;;;;;1.65;1.02;;;19.20;91.60;;;;;;4896476;29;20040;-67
2022/06/06 12:18:21;;;;;;;0.98;0.98;;;19.20;91.70;;;;;;4979434;28;20049;-67
2022/06/06 12:21:15;;;;;;;1.20;0.90;;;19.20;91.70;;;;;;4992393;28;20478;-69
2022/06/06 12:24:22;;;;;;;1.00;0.90;;;19.40;91.50;;;;;;4993560;28;20062;-68
2022/06/06 12:27:06;;;;;;;;;;;19.40;91.00;;;;;;4994823;28;20038;-68
2022/06/06 12:29:35;;;;;;;;;;;19.40;90.60;;;;;;4994029;28;19916;-68
2022/06/06 12:32:31;;;;;;;2.22;0.85;;;19.40;90.60;;;;;;4994421;28;19968;-68
2022/06/06 12:35:12;;;;;;;2.65;0.93;;;19.40;90.40;;;;;;4994462;28;20134;-68
2022/06/06 12:37:38;;;;;;;3.35;1.50;;;19.40;90.30;;;;;;4993231;28;20398;-68
2022/06/06 12:40:14;;;;;;;2.90;1.25;;;19.30;90.20;;;;;;4994738;28;20022;-67
2022/06/06 12:42:58;;;;;;;2.42;1.85;;;19.40;90.20;;;;;;4994943;28;20038;-68
2022/06/06 12:45:38;;;;;;;3.28;1.20;;;19.40;90.10;;;;;;4994276;28;20077;-69
2022/06/06 12:48:12;;;;;;;4.97;1.10;;;19.40;90.00;;;;;;4994647;28;20046;-70
2022/06/06 12:50:46;;;;;;;4.15;1.50;;;19.40;89.70;;;;;;4994652;28;20389;-70
2022/06/06 12:53:12;;;;;;;;;;;19.40;89.60;;;;;;4992054;28;20050;-68
2022/06/06 12:56:23;;;;;;;1.00;0.98;;;19.40;89.10;;;;;;4991290;28;19960;-67
2022/06/06 12:59:27;;;;;;;1.17;1.08;;;19.40;89.40;;;;;;4992904;28;20414;-66
2022/06/06 13:02:22;;;;;;;0.85;0.75;;;19.50;89.80;;;;;;4992748;28;20022;-67
2022/06/06 13:05:01;;;;;;;0.60;0.60;;;19.40;90.10;;;;;;4991088;28;20486;-68
2022/06/06 13:07:54;;;;;;;0.70;0.63;;;19.50;90.30;;;;;;4992096;28;20039;-67
2022/06/06 13:10:27;;;;;;;2.10;0.70;;;19.50;90.30;;;;;;4992018;28;20057;-68
2022/06/06 13:12:52;;;;;;;1.83;1.23;;;19.50;90.20;;;;;;4989825;28;20289;-68
2022/06/06 13:15:27;;;;;;;3.35;1.27;;;19.50;90.20;;;;;;4991128;28;20113;-68
2022/06/06 13:18:23;;;;;;;1.65;1.08;;;19.50;90.10;;;;;;4990795;28;20076;-68
2022/06/06 13:21:22;;;;;;;1.90;1.10;;;19.50;90.00;;;;;;4986105;28;20033;-68
2022/06/06 13:24:16;;;;;;;3.33;1.48;;;19.40;89.70;;;;;;4988618;28;20038;-68
2022/06/06 13:26:55;;;;;;;3.03;1.15;;;19.40;89.60;;;;;;4988561;28;20069;-68
2022/06/06 13:29:25;;;;;;;2.53;1.25;;;19.30;90.00;;;;;;4988666;28;20042;-68
2022/06/06 13:32:18;;;;;;;3.60;1.13;;;19.30;90.10;;;;;;4990027;28;20038;-67
2022/06/06 13:35:01;;;;;;;0.82;0.82;;;19.20;90.30;;;;;;4989456;28;20394;-68
2022/06/06 13:38:05;;;;;;;6.53;1.50;;;19.20;90.30;;;;;;4991410;28;20034;-67
2022/06/06 13:40:42;;;;;;;1.42;0.90;;;19.20;90.40;;;;;;4976799;28;20037;-68
2022/06/06 13:43:52;;;;;;;1.48;1.05;;;19.20;90.30;;;;;;4988784;28;20058;-68
2022/06/06 13:46:32;;;;;;;0.50;0.50;;;19.20;90.50;;;;;;4989457;28;20042;-70
2022/06/06 13:49:37;;;;;;;0.68;0.68;;;19.20;90.60;;;;;;4989088;28;20397;-70
2022/06/06 13:52:19;;;;;;;0.60;0.60;;;19.10;90.60;;;;;;4927931;29;20035;-69
2022/06/06 13:54:45;;;;;;;0.65;0.65;;;19.20;90.60;;;;;;4921710;29;20036;-69
2022/06/06 13:57:23;;;;;;;0.50;0.50;;;19.10;90.50;;;;;;4960397;28;20092;-69
2022/06/06 14:00:00;;;;;;;1.08;0.93;;;19.20;90.50;;;;;;4988351;28;20037;-69
2022/06/06 14:03:12;;;;;;;1.10;1.00;;;19.10;90.50;;;;;;4991797;28;20019;-67
2022/06/06 14:06:07;;;;;;;2.83;1.58;;;19.10;90.70;;;;;;4964984;28;20039;-67
2022/06/06 14:08:51;;;;;;;0.57;0.57;;;19.10;90.90;;;;;;4937672;28;20044;-68
2022/06/06 14:11:41;;;;;;;0.80;0.80;;;19.10;91.10;;;;;;4992994;28;20102;-68
2022/06/06 14:14:08;;;;;;;1.55;1.05;;;19.10;91.20;;;;;;4990404;28;20471;-67
2022/06/06 14:16:45;;;;;;;1.40;0.90;;;19.00;91.20;;;;;;4990349;28;20104;-66